TimePDT,TemperatureF,Dew PointF,Humidity,Sea Level PressureIn,VisibilityMPH,Wind Direction,Wind SpeedMPH,Gust SpeedMPH,PrecipitationIn,Events,Conditions,WindDirDegrees,DateUTC
12:58 AM,45.7,45.7,100,30.05,5.0,SW,3.5,-,N/A,,Clear,220,2013-03-19 07:58:00
1:58 AM,43.9,43.9,100,30.05,5.0,NNW,2.3,-,N/A,,Clear,330,2013-03-19 08:58:00
2:58 AM,42.6,42.6,100,30.04,6.0,Calm,Calm,-,N/A,,Clear,0,2013-03-19 09:58:00
3:58 AM,43.5,43.5,100,30.05,6.0,WNW,3.5,-,N/A,,Partly Cloudy,300,2013-03-19 10:58:00
4:13 AM,44.6,44.6,100,30.06,5.0,West,3.5,-,N/A,,Scattered Clouds,270,2013-03-19 11:13:00
4:23 AM,44.6,44.6,100,30.06,5.0,West,3.5,-,N/A,,Mostly Cloudy,260,2013-03-19 11:23:00
4:58 AM,46.4,46.4,100,30.05,6.0,SSE,3.5,-,N/A,,Overcast,160,2013-03-19 11:58:00
5:58 AM,48.9,48.9,100,30.05,6.0,South,3.5,-,N/A,,Overcast,180,2013-03-19 12:58:00
6:18 AM,50.0,50.0,100,30.06,7.0,SSE,2.3,-,N/A,,Overcast,150,2013-03-19 13:18:00
6:48 AM,50.0,50.0,100,30.07,8.0,SSE,3.5,-,N/A,,Overcast,150,2013-03-19 13:48:00
6:58 AM,49.8,49.8,100,30.05,5.0,SE,4.6,-,N/A,,Overcast,140,2013-03-19 13:58:00
7:03 AM,50.0,50.0,100,30.06,5.0,SSE,3.5,-,N/A,,Overcast,150,2013-03-19 14:03:00
7:58 AM,51.3,51.3,100,30.08,5.0,SE,4.6,-,N/A,,Overcast,130,2013-03-19 14:58:00
8:18 AM,51.8,51.8,100,30.09,3.0,Calm,Calm,-,N/A,,Overcast,0,2013-03-19 15:18:00
8:58 AM,51.8,51.6,99,30.09,3.0,Calm,Calm,-,N/A,,Overcast,0,2013-03-19 15:58:00
9:08 AM,51.8,51.8,100,30.10,3.0,Calm,Calm,-,N/A,,Overcast,0,2013-03-19 16:08:00
9:33 AM,53.6,53.6,100,30.10,3.0,Variable,2.3,-,N/A,,Overcast,0,2013-03-19 16:33:00
9:58 AM,54.0,54.0,100,30.10,3.0,Variable,1.2,-,N/A,,Overcast,0,2013-03-19 16:58:00
10:18 AM,55.4,53.6,94,30.10,4.0,Variable,1.2,-,N/A,,Mostly Cloudy,0,2013-03-19 17:18:00
10:33 AM,55.4,55.4,100,30.10,4.0,Variable,2.3,-,N/A,,Mostly Cloudy,0,2013-03-19 17:33:00
10:53 AM,57.2,55.4,94,30.10,4.0,SSE,1.2,-,N/A,,Scattered Clouds,150,2013-03-19 17:53:00
10:58 AM,57.6,55.0,91,30.10,4.0,Calm,Calm,-,N/A,,Mostly Cloudy,0,2013-03-19 17:58:00
11:58 AM,61.3,56.1,83,30.09,5.0,NW,6.9,-,N/A,,Haze,310,2013-03-19 18:58:00
12:58 PM,63.1,56.5,79,30.07,6.0,NW,10.4,-,N/A,,Haze,310,2013-03-19 19:58:00
1:58 PM,66.2,56.7,71,30.04,6.0,WNW,9.2,-,N/A,,Haze,300,2013-03-19 20:58:00
2:58 PM,69.1,57.2,66,30.04,10.0,West,8.1,-,N/A,,Clear,280,2013-03-19 21:58:00
3:58 PM,69.3,56.3,63,30.04,10.0,NW,12.7,-,N/A,,Clear,310,2013-03-19 22:58:00
4:58 PM,68.5,54.9,62,30.04,10.0,NW,10.4,-,N/A,,Clear,310,2013-03-19 23:58:00
5:58 PM,65.8,54.1,66,30.05,10.0,WNW,9.2,-,N/A,,Clear,300,2013-03-20 00:58:00
6:58 PM,60.8,52.5,74,30.06,10.0,NW,5.8,-,N/A,,Clear,310,2013-03-20 01:58:00
7:58 PM,57.0,50.7,79,30.09,10.0,West,3.5,-,N/A,,Clear,270,2013-03-20 02:58:00
8:58 PM,54.1,49.8,85,30.10,10.0,South,3.5,-,N/A,,Clear,180,2013-03-20 03:58:00
9:58 PM,52.0,48.4,88,30.10,10.0,West,4.6,-,N/A,,Clear,270,2013-03-20 04:58:00
10:58 PM,50.5,47.5,89,30.11,10.0,SW,1.2,-,N/A,,Mostly Cloudy,220,2013-03-20 05:58:00
11:58 PM,50.4,48.9,95,30.09,9.0,West,4.6,-,N/A,,Scattered Clouds,270,2013-03-20 06:58:00